Time;durP1;ratioP1;P1;durP2;ratioP2;P2;SDS_P1;SDS_P2;PMS_P1;PMS_P2;Temp;Humidity;BMP_temperature;BMP_pressure;BME280_temperature;BME280_humidity;BME280_pressure;Samples;Min_cycle;Max_cycle;Signal;HPM_P1;HPM_P2
2023/04/29 11:56:13;;;;;;;6.22;3.77;;;;;;;23.36;26.03;100066.34;1887061;76;26845;-66
2023/04/29 11:58:42;;;;;;;4.83;3.80;;;;;;;22.81;26.83;100060.78;1852938;77;25461;-67
2023/04/29 12:01:13;;;;;;;11.48;7.72;;;;;;;22.87;27.37;100066.69;1858170;77;28044;-75
2023/04/29 12:03:39;;;;;;;40.55;36.15;;;;;;;22.78;26.94;100062.95;1788455;80;25810;-81
2023/04/29 12:06:06;;;;;;;11.53;5.92;;;;;;;22.42;27.66;100053.97;1788348;80;25473;-78
2023/04/29 12:08:33;;;;;;;8.38;4.17;;;;;;;22.20;28.46;100043.73;1820416;78;25586;-67
2023/04/29 12:11:00;;;;;;;9.43;4.30;;;;;;;22.24;29.17;100039.60;1788176;80;25545;-69
2023/04/29 12:13:29;;;;;;;8.25;4.33;;;;;;;22.15;28.62;100054.34;1820372;78;29644;-66
2023/04/29 12:15:57;;;;;;;8.63;4.10;;;;;;;21.89;28.35;100037.03;1788089;80;32130;-65
2023/04/29 12:18:26;;;;;;;69.12;65.08;;;;;;;22.08;28.50;100037.23;1820404;78;25387;-65
2023/04/29 12:20:56;;;;;;;73.28;68.85;;;;;;;22.37;28.52;100030.35;1788155;80;25602;-64
2023/04/29 12:23:29;;;;;;;72.40;67.82;;;;;;;22.27;27.76;100028.37;1820384;78;25621;-64
2023/04/29 12:25:58;;;;;;;70.80;66.55;;;;;;;21.91;28.22;100031.13;1786287;80;29687;-65
2023/04/29 12:28:26;;;;;;;6.92;4.05;;;;;;;22.16;28.85;100028.39;1819910;78;25421;-67
2023/04/29 12:30:53;;;;;;;5.78;4.33;;;;;;;22.12;28.78;100031.74;1787588;80;25664;-63
2023/04/29 12:33:23;;;;;;;10.48;4.33;;;;;;;22.29;28.29;100030.19;1788042;80;25534;-64
2023/04/29 12:35:51;;;;;;;7.92;3.50;;;;;;;22.11;27.61;100037.83;1786372;80;25448;-65
2023/04/29 12:38:22;;;;;;;35.92;33.63;;;;;;;21.65;28.29;100034.45;1820365;78;27437;-62
2023/04/29 12:40:49;;;;;;;72.25;67.90;;;;;;;21.32;28.88;100028.62;1783110;80;25414;-63
2023/04/29 12:43:16;;;;;;;74.90;70.52;;;;;;;21.36;29.23;100033.57;1820322;78;25427;-64
2023/04/29 12:45:42;;;;;;;72.58;68.20;;;;;;;21.55;28.83;100022.83;1788011;80;25435;-65
2023/04/29 12:48:12;;;;;;;76.45;71.80;;;;;;;21.73;28.93;100017.38;1820356;78;25590;-67
2023/04/29 12:50:39;;;;;;;74.77;70.17;;;;;;;21.90;28.93;100018.56;1788088;80;27577;-68
2023/04/29 12:53:08;;;;;;;73.95;69.37;;;;;;;22.32;29.04;100004.58;1820283;78;25557;-66
2023/04/29 12:55:36;;;;;;;72.97;68.70;;;;;;;22.37;28.32;100014.63;1788027;80;25604;-66
2023/04/29 12:58:04;;;;;;;73.60;69.00;;;;;;;21.94;27.98;100025.62;1820607;78;25584;-65
2023/04/29 13:00:31;;;;;;;71.92;67.82;;;;;;;21.52;28.75;100005.72;1788360;80;25565;-67
2023/04/29 13:02:58;;;;;;;71.97;67.78;;;;;;;21.68;28.98;100016.38;1820363;78;27093;-68
2023/04/29 13:05:24;;;;;;;73.37;68.62;;;;;;;21.34;28.48;100006.45;1787903;80;25808;-64
2023/04/29 13:07:51;;;;;;;74.90;70.17;;;;;;;21.08;29.11;100011.09;1819763;78;25429;-63
2023/04/29 13:10:18;;;;;;;73.87;69.07;;;;;;;21.00;29.27;100011.45;1787470;80;25566;-67
2023/04/29 13:12:44;;;;;;;77.67;72.97;;;;;;;21.01;29.42;100001.45;1819871;78;25530;-63
2023/04/29 13:15:11;;;;;;;73.87;69.37;;;;;;;21.19;29.85;99995.98;1787433;80;27995;-64
2023/04/29 13:17:37;;;;;;;75.25;70.67;;;;;;;21.49;29.50;99996.87;1819660;78;25689;-64
2023/04/29 13:20:07;;;;;;;75.37;70.62;;;;;;;21.47;29.25;99994.53;1787386;80;25447;-65
2023/04/29 13:22:33;;;;;;;72.72;68.40;;;;;;;21.24;29.17;99989.33;1819866;78;25597;-68
2023/04/29 13:25:00;;;;;;;72.58;68.33;;;;;;;20.90;29.46;99992.36;1787476;80;25605;-67
2023/04/29 13:27:26;;;;;;;45.58;42.33;;;;;;;20.55;29.80;99989.62;1819818;78;27617;-64
2023/04/29 13:29:52;;;;;;;7.97;4.10;;;;;;;20.27;30.19;99997.09;1787346;80;25920;-65
2023/04/29 13:32:22;;;;;;;8.95;5.35;;;;;;;20.07;30.51;99997.92;1819741;78;25391;-66
2023/04/29 13:34:47;;;;;;;7.65;4.67;;;;;;;20.13;31.24;99984.05;1787102;80;25391;-67
2023/04/29 13:37:13;;;;;;;15.98;14.53;;;;;;;20.23;30.89;99976.47;1819725;78;25530;-67
2023/04/29 13:39:39;;;;;;;75.80;71.40;;;;;;;20.05;30.79;99980.45;1787448;80;27512;-67
2023/04/29 13:42:05;;;;;;;73.92;69.35;;;;;;;19.82;31.16;99977.94;1819604;78;25820;-65
2023/04/29 13:44:32;;;;;;;75.97;71.40;;;;;;;19.80;32.00;99974.76;1787425;80;25462;-68
2023/04/29 13:46:59;;;;;;;6.72;5.75;;;;;;;19.92;31.64;99984.09;1819683;78;25614;-67
2023/04/29 13:49:26;;;;;;;48.78;45.52;;;;;;;19.87;31.53;99983.08;1787469;80;25467;-69
2023/04/29 13:51:52;;;;;;;34.50;32.20;;;;;;;19.77;31.58;99994.16;1787427;80;27470;-67
2023/04/29 13:54:20;;;;;;;79.45;74.32;;;;;;;19.56;31.79;99989.24;1819570;78;25605;-71
2023/04/29 13:56:47;;;;;;;77.67;72.10;;;;;;;19.33;31.88;99985.87;1787393;80;25410;-65
2023/04/29 13:59:13;;;;;;;77.08;72.12;;;;;;;19.13;32.01;99977.81;1819647;78;27333;-63
2023/04/29 14:01:40;;;;;;;77.82;72.80;;;;;;;19.10;32.44;99982.66;1787472;80;25660;-59
2023/04/29 14:04:06;;;;;;;74.00;69.60;;;;;;;19.07;32.31;99977.95;1819703;78;27539;-73
2023/04/29 14:06:33;;;;;;;77.72;73.02;;;;;;;19.04;32.59;99975.95;1787338;80;25662;-63
2023/04/29 14:09:00;;;;;;;76.87;72.08;;;;;;;19.02;32.92;99972.80;1819715;78;25439;-66
2023/04/29 14:11:27;;;;;;;76.22;71.40;;;;;;;19.15;33.22;99972.73;1787449;80;25868;-60
2023/04/29 14:13:53;;;;;;;77.08;72.10;;;;;;;19.34;33.20;99975.09;1819872;78;25531;-64
2023/04/29 14:16:20;;;;;;;70.70;66.47;;;;;;;19.35;32.94;99966.48;1787730;80;27540;-64
2023/04/29 14:18:46;;;;;;;73.80;69.15;;;;;;;19.32;33.09;99965.08;1819949;78;25529;-64
2023/04/29 14:21:12;;;;;;;72.53;68.20;;;;;;;19.29;33.23;99972.13;1788022;80;25190;-64
2023/04/29 14:23:38;;;;;;;74.00;69.53;;;;;;;19.29;33.02;99972.69;1820445;78;25578;-65
2023/04/29 14:26:06;;;;;;;73.87;69.17;;;;;;;19.19;33.10;99976.32;1787660;80;25530;-64
2023/04/29 14:28:32;;;;;;;76.10;71.60;;;;;;;19.08;33.25;99969.92;1819681;78;27518;-64
2023/04/29 14:30:58;;;;;;;70.70;66.30;;;;;;;19.02;33.51;99973.59;1787303;80;25456;-61
2023/04/29 14:33:24;;;;;;;74.17;69.12;;;;;;;18.94;33.58;99975.25;1819636;78;25356;-65
2023/04/29 14:35:51;;;;;;;73.10;68.70;;;;;;;18.88;33.69;99971.25;1787350;80;25363;-64
2023/04/29 14:38:17;;;;;;;74.77;70.30;;;;;;;18.81;33.96;99972.73;1819675;78;25435;-66
2023/04/29 14:40:43;;;;;;;76.05;71.30;;;;;;;18.74;33.89;99975.94;1786932;80;27526;-66
2023/04/29 14:43:09;;;;;;;74.95;70.20;;;;;;;18.64;34.06;99978.19;1818768;78;25918;-64
2023/04/29 14:45:36;;;;;;;74.07;69.50;;;;;;;18.53;34.17;99974.50;1787034;80;25623;-71
2023/04/29 14:48:03;;;;;;;75.80;71.17;;;;;;;18.52;34.48;99963.33;1819652;78;25780;-63
2023/04/29 14:50:30;;;;;;;70.70;66.42;;;;;;;18.52;34.50;99966.06;1787440;80;25563;-62
2023/04/29 14:52:57;;;;;;;74.47;69.90;;;;;;;18.47;34.72;99969.13;1819663;78;28125;-63
2023/04/29 14:55:24;;;;;;;75.20;70.50;;;;;;;18.43;34.84;99967.71;1780870;80;25444;-66
2023/04/29 14:57:50;;;;;;;71.07;66.70;;;;;;;18.40;35.06;99970.41;1790562;80;25612;-65
2023/04/29 15:00:17;;;;;;;76.10;71.33;;;;;;;18.37;35.08;99971.95;1790462;80;25461;-64
2023/04/29 15:02:43;;;;;;;75.85;70.95;;;;;;;18.28;35.18;99972.19;1790470;80;25550;-71
2023/04/29 15:05:09;;;;;;;74.72;70.12;;;;;;;18.29;35.32;99961.45;1790450;80;27508;-63
2023/04/29 15:07:35;;;;;;;78.45;73.55;;;;;;;18.23;35.33;99963.51;1790381;80;25796;-62
2023/04/29 15:10:05;;;;;;;76.53;71.82;;;;;;;18.15;35.60;99964.56;1790428;80;25549;-58
2023/04/29 15:12:31;;;;;;;74.45;69.95;;;;;;;18.07;35.72;99967.78;1790510;80;25560;-66
2023/04/29 15:14:57;;;;;;;48.68;45.10;;;;;;;17.99;35.77;99968.23;1789304;80;25689;-66
2023/04/29 15:17:24;;;;;;;77.47;72.27;;;;;;;17.94;35.90;99971.87;1790203;80;27547;-67
2023/04/29 15:19:50;;;;;;;77.85;72.95;;;;;;;17.85;36.06;99966.03;1760444;80;25552;-66
2023/04/29 15:22:17;;;;;;;81.28;75.95;;;;;;;17.83;36.13;99964.25;1790435;80;25511;-60
2023/04/29 15:24:43;;;;;;;79.92;74.62;;;;;;;17.89;36.35;99975.69;1761507;80;25610;-65
2023/04/29 15:27:10;;;;;;;68.52;64.17;;;;;;;17.90;36.49;99971.23;1790469;80;25384;-66
2023/04/29 15:29:37;;;;;;;79.22;74.17;;;;;;;17.94;36.58;99972.65;1790428;80;27412;-63
2023/04/29 15:32:04;;;;;;;77.62;72.70;;;;;;;17.97;36.55;99970.55;1790381;80;25520;-63
2023/04/29 15:34:31;;;;;;;49.90;46.98;;;;;;;17.90;36.58;99969.86;1790389;80;25536;-59
2023/04/29 17:33:05;;;;;;;12.50;6.97;;;;;;;16.28;40.80;99989.66;1839572;77;25593;-66
2023/04/29 17:35:33;;;;;;;15.08;7.30;;;;;;;16.19;40.92;99985.75;1814724;79;25349;-69
2023/04/29 17:38:00;;;;;;;9.58;6.87;;;;;;;16.14;41.00;99982.74;1812783;79;27471;-69
2023/04/29 17:40:26;;;;;;;14.13;8.45;;;;;;;16.08;41.24;99980.05;1812947;79;25875;-61
2023/04/29 17:42:53;;;;;;;13.50;7.90;;;;;;;15.96;41.33;99978.21;1746986;82;25606;-58
2023/04/29 17:45:19;;;;;;;12.88;8.15;;;;;;;15.93;41.66;99988.45;1746180;82;25680;-58
2023/04/29 17:47:46;;;;;;;15.30;7.55;;;;;;;15.86;41.77;99984.98;1746412;82;25737;-56
2023/04/29 17:50:12;;;;;;;14.35;7.80;;;;;;;15.79;42.12;99973.13;1747012;82;27645;-57
2023/04/29 17:52:38;;;;;;;17.62;9.08;;;;;;;15.76;41.91;99983.36;1746777;82;25815;-55
2023/04/29 17:55:08;;;;;;;14.58;9.88;;;;;;;15.71;42.14;99985.73;1747005;82;25652;-63
2023/04/29 17:57:35;;;;;;;;;;;;;;;15.66;42.34;99980.55;1749828;82;26071;-63
2023/04/29 18:00:06;;;;;;;12.18;8.33;;;;;;;15.61;42.55;99977.53;1748057;81;25556;-65
2023/04/29 18:02:33;;;;;;;44.50;40.98;;;;;;;15.56;42.57;99987.88;1778817;80;27452;-66
2023/04/29 18:05:03;;;;;;;84.87;79.07;;;;;;;15.47;42.77;99983.95;1747920;82;25871;-66
2023/04/29 18:07:30;;;;;;;13.90;8.13;;;;;;;15.42;42.76;99985.58;1778981;80;25613;-65
2023/04/29 18:09:56;;;;;;;13.40;8.15;;;;;;;15.40;43.00;99990.59;1748052;82;25158;-66
2023/04/29 18:12:23;;;;;;;13.53;7.78;;;;;;;15.36;43.10;99988.33;1778901;80;25357;-65
2023/04/29 18:14:51;;;;;;;83.52;77.90;;;;;;;15.30;43.16;99985.84;1747938;82;27638;-55
2023/04/29 18:17:20;;;;;;;83.87;77.87;;;;;;;15.27;43.40;99990.66;1763320;81;25540;-58
2023/04/29 18:19:49;;;;;;;82.90;77.03;;;;;;;15.25;43.82;99990.19;1747806;82;25414;-54
2023/04/29 18:22:17;;;;;;;81.65;75.92;;;;;;;15.21;43.61;99993.40;1778950;80;25613;-57
2023/04/29 18:24:43;;;;;;;84.75;79.07;;;;;;;15.20;43.92;99995.11;1748170;82;25554;-57
2023/04/29 18:27:09;;;;;;;85.22;79.17;;;;;;;15.20;43.79;100010.09;1747864;82;28231;-59
2023/04/29 18:29:36;;;;;;;85.47;79.47;;;;;;;15.15;43.93;100008.97;1747715;82;25454;-58
2023/04/29 18:32:04;;;;;;;84.15;77.82;;;;;;;15.11;44.08;100011.60;1743725;81;25753;-69
2023/04/29 18:34:31;;;;;;;79.72;74.07;;;;;;;15.08;44.04;100017.73;1740429;82;25529;-69
2023/04/29 18:36:57;;;;;;;83.05;77.00;;;;;;;15.05;44.20;100013.78;1741896;82;25552;-72
2023/04/29 18:39:23;;;;;;;82.17;76.37;;;;;;;15.01;44.34;100023.77;1742009;82;28043;-71
2023/04/29 18:41:50;;;;;;;82.42;76.60;;;;;;;14.99;44.56;100026.63;1741892;82;25545;-69
2023/04/29 18:44:21;;;;;;;81.72;75.75;;;;;;;14.94;44.68;100022.20;1720497;82;25240;-72
2023/04/29 18:46:47;;;;;;;80.42;75.00;;;;;;;14.91;44.60;100026.43;1741221;82;25612;-66
2023/04/29 18:49:15;;;;;;;84.15;78.17;;;;;;;14.89;44.96;100032.77;1741641;81;25474;-59
2023/04/29 18:51:46;;;;;;;88.87;81.80;;;;;;;14.90;45.09;100037.66;1741370;82;28109;-57
2023/04/29 18:54:18;;;;;;;87.20;80.28;;;;;;;14.91;45.05;100041.95;1741360;82;25569;-58
2023/04/29 18:56:49;;;;;;;81.97;75.97;;;;;;;14.90;45.17;100041.17;1741774;82;25383;-68
2023/04/29 18:59:19;;;;;;;81.02;74.77;;;;;;;14.92;45.26;100044.34;1742043;82;25845;-61
2023/04/29 19:01:48;;;;;;;42.93;39.75;;;;;;;14.93;45.21;100044.57;1741881;82;25608;-71
2023/04/29 19:04:15;;;;;;;143.37;129.10;;;;;;;14.83;45.30;100020.55;1742603;82;27565;-71
2023/04/29 19:06:41;;;;;;;99.40;91.72;;;;;;;14.96;45.52;100057.27;1742467;82;25611;-71
2023/04/29 19:09:08;;;;;;;88.60;81.95;;;;;;;14.93;45.46;100054.66;1743011;82;25599;-70
2023/04/29 19:11:35;;;;;;;85.53;79.32;;;;;;;14.89;45.58;100047.74;1742601;82;25975;-76
2023/04/29 19:14:02;;;;;;;82.85;77.08;;;;;;;14.86;45.55;100049.00;1742146;82;25467;-77
2023/04/29 19:16:29;;;;;;;83.55;77.58;;;;;;;14.82;45.43;100038.58;1741840;82;28033;-76
2023/04/29 19:18:55;;;;;;;88.30;81.50;;;;;;;14.80;45.67;100031.33;1741228;81;25455;-76
2023/04/29 19:21:22;;;;;;;89.15;82.47;;;;;;;14.79;45.88;100035.18;1741959;81;25534;-75
2023/04/29 19:23:48;;;;;;;87.70;80.60;;;;;;;14.72;45.74;100044.70;1741504;82;25623;-67
2023/04/29 19:26:14;;;;;;;90.40;83.27;;;;;;;14.66;45.93;100037.93;1810888;79;25536;-70
2023/04/29 19:28:41;;;;;;;60.80;55.15;;;;;;;14.39;46.03;100010.25;1772144;81;27655;-67
2023/04/29 19:31:07;;;;;;;58.90;53.28;;;;;;;14.54;46.21;100042.78;1741237;82;25611;-74
2023/04/29 19:33:36;;;;;;;90.57;83.90;;;;;;;14.48;46.32;100044.72;1741611;82;25370;-76
2023/04/29 19:36:03;;;;;;;87.47;81.08;;;;;;;14.38;46.44;100045.38;1741927;82;25465;-73
2023/04/29 19:38:31;;;;;;;89.53;82.63;;;;;;;14.28;46.70;100037.67;1741991;82;25207;-70
2023/04/29 19:40:57;;;;;;;89.17;82.42;;;;;;;14.22;46.88;100040.41;1741335;82;27681;-56
2023/04/29 19:43:23;;;;;;;91.95;84.95;;;;;;;14.13;47.14;100045.96;1810655;79;25543;-53
2023/04/29 19:45:49;;;;;;;20.08;11.30;;;;;;;14.10;47.03;100045.85;1810732;79;25432;-56
2023/04/29 19:48:18;;;;;;;28.23;13.85;;;;;;;14.06;46.94;100048.42;1810813;79;25451;-53
2023/04/29 19:50:45;;;;;;;28.30;12.82;;;;;;;14.04;47.07;100053.98;1741477;82;25405;-51
2023/04/29 19:53:12;;;;;;;74.50;68.02;;;;;;;13.98;46.89;100056.93;1770970;81;27610;-54
2023/04/29 19:55:41;;;;;;;83.45;76.70;;;;;;;13.90;47.42;100055.09;1740730;82;25834;-58
2023/04/29 19:58:09;;;;;;;86.87;80.25;;;;;;;13.80;47.39;100048.73;1741054;82;25587;-54
2023/04/29 20:00:35;;;;;;;27.70;23.55;;;;;;;13.75;47.77;100048.95;1741299;82;25461;-55
2023/04/29 20:03:04;;;;;;;88.78;82.12;;;;;;;13.71;47.92;100046.11;1741397;81;25414;-56
2023/04/29 20:05:31;;;;;;;90.32;83.42;;;;;;;13.64;47.79;100050.73;1740876;82;29691;-52
2023/04/29 20:07:57;;;;;;;82.95;76.28;;;;;;;13.59;48.03;100054.23;1810664;79;25553;-56
2023/04/29 20:10:23;;;;;;;87.27;80.53;;;;;;;13.54;48.18;100055.23;1810707;79;25516;-52
2023/04/29 20:12:49;;;;;;;91.12;83.97;;;;;;;13.49;48.17;100049.22;1809289;79;25729;-50
2023/04/29 20:15:16;;;;;;;92.35;85.45;;;;;;;13.44;48.49;100052.93;1809248;79;25637;-55
2023/04/29 20:17:42;;;;;;;91.65;84.22;;;;;;;13.41;48.47;100050.87;1739821;82;27601;-54
2023/04/29 20:20:11;;;;;;;89.55;82.47;;;;;;;13.36;48.49;100048.36;1809272;79;25689;-52
2023/04/29 20:22:37;;;;;;;89.77;82.80;;;;;;;13.30;48.98;100049.11;1810848;79;25516;-55
2023/04/29 20:25:08;;;;;;;84.70;77.95;;;;;;;13.27;49.01;100042.98;1771837;81;25375;-53
2023/04/29 20:27:36;;;;;;;61.35;56.23;;;;;;;13.21;49.28;100038.33;1810910;79;28593;-61
2023/04/29 20:30:08;;;;;;;94.60;87.37;;;;;;;13.18;49.40;100045.77;1810880;79;27398;-59
2023/04/29 20:32:35;;;;;;;18.37;11.83;;;;;;;13.16;49.41;100047.22;1771407;81;25693;-55
2023/04/29 20:35:01;;;;;;;25.77;12.82;;;;;;;13.14;49.65;100052.19;1741245;82;25501;-57
2023/04/29 20:37:28;;;;;;;21.65;12.23;;;;;;;13.10;49.61;100050.70;1741258;82;25461;-59
2023/04/29 20:39:54;;;;;;;19.98;12.30;;;;;;;13.06;49.96;100048.44;1740576;82;25402;-57
2023/04/29 20:42:21;;;;;;;21.45;13.25;;;;;;;13.00;50.14;100045.11;1809926;79;27492;-59
2023/04/29 20:44:49;;;;;;;19.15;11.97;;;;;;;12.96;50.21;100042.83;1810666;79;25823;-58
2023/04/29 20:47:15;;;;;;;80.70;74.10;;;;;;;12.91;50.42;100043.03;1810680;79;25624;-58
2023/04/29 20:49:41;;;;;;;93.25;85.90;;;;;;;12.85;50.80;100041.05;1740763;82;25474;-61
2023/04/29 20:52:09;;;;;;;91.30;83.72;;;;;;;12.80;50.99;100039.89;1810608;79;25549;-64
2023/04/29 20:54:36;;;;;;;90.28;83.05;;;;;;;12.78;51.18;100040.00;1810808;79;28296;-61
2023/04/29 20:57:04;;;;;;;89.95;83.30;;;;;;;12.75;51.10;100041.44;1810629;79;25444;-64
2023/04/29 20:59:33;;;;;;;89.40;82.15;;;;;;;12.71;51.39;100044.02;1741361;82;25409;-64
2023/04/29 21:01:59;;;;;;;21.27;13.48;;;;;;;12.66;51.17;100033.93;1810459;79;25573;-63
2023/04/29 21:04:27;;;;;;;19.35;12.75;;;;;;;12.66;51.14;100035.29;1810629;79;25380;-63
2023/04/29 21:06:53;;;;;;;90.15;83.20;;;;;;;12.62;51.58;100037.08;1740781;82;27606;-63
2023/04/29 21:09:22;;;;;;;89.83;82.97;;;;;;;12.56;51.65;100035.09;1810284;79;27362;-64
2023/04/29 21:11:48;;;;;;;89.70;83.05;;;;;;;12.51;51.84;100040.17;1810679;79;25580;-63
2023/04/29 21:14:14;;;;;;;92.17;84.97;;;;;;;12.46;51.75;100034.94;1810663;79;25550;-63
2023/04/29 21:16:42;;;;;;;89.15;82.08;;;;;;;12.41;52.29;100037.02;1810727;79;25428;-63
2023/04/29 21:19:09;;;;;;;93.87;86.63;;;;;;;12.36;52.20;100043.98;1810644;79;29678;-62
2023/04/29 21:21:35;;;;;;;87.72;80.87;;;;;;;12.31;52.29;100041.70;1810593;79;25622;-63
2023/04/29 21:24:03;;;;;;;88.22;81.15;;;;;;;12.26;52.32;100039.72;1810688;79;25372;-64
2023/04/29 21:26:29;;;;;;;89.30;82.05;;;;;;;12.22;52.42;100038.22;1810731;79;25488;-63
2023/04/29 21:28:57;;;;;;;92.30;84.80;;;;;;;12.18;52.75;100038.65;1772043;80;25562;-63
2023/04/29 21:31:24;;;;;;;86.22;79.53;;;;;;;12.14;53.09;100035.80;1741172;82;27570;-56
2023/04/29 21:33:50;;;;;;;92.95;85.40;;;;;;;12.07;52.89;100032.80;1740526;82;25560;-57
2023/04/29 21:36:16;;;;;;;114.72;103.70;;;;;;;12.07;53.07;100031.98;1740550;82;25514;-57
2023/04/29 21:38:43;;;;;;;112.12;76.40;;;;;;;12.06;53.25;100033.13;1740694;82;25540;-57
2023/04/29 21:41:27;;;;;;;100.67;91.50;;;;;;;12.06;53.42;100037.20;1738810;82;25607;-62
2023/04/29 21:43:58;;;;;;;91.47;84.13;;;;;;;12.02;53.30;100037.05;1737210;82;27475;-60
2023/04/29 21:46:29;;;;;;;89.30;82.27;;;;;;;11.99;53.38;100034.20;1738836;82;25619;-60
2023/04/29 21:49:01;;;;;;;92.88;85.45;;;;;;;11.92;53.39;100034.70;1740904;82;25623;-61
2023/04/29 21:51:31;;;;;;;89.37;82.22;;;;;;;11.88;53.40;100033.70;1741276;82;26160;-61
2023/04/29 21:53:57;;;;;;;90.62;83.75;;;;;;;11.80;53.60;100030.45;1741410;82;25433;-59
2023/04/29 21:56:23;;;;;;;90.35;82.78;;;;;;;11.73;53.57;100034.48;1763043;81;27543;-61
2023/04/29 21:58:52;;;;;;;91.37;84.10;;;;;;;11.67;53.88;100028.19;1740661;82;25577;-63
2023/04/29 22:01:38;;;;;;;91.10;84.17;;;;;;;11.59;53.98;100031.96;1808179;79;25683;-62
2023/04/29 22:03:57;;;;;;;93.22;86.05;;;;;;;11.54;54.16;100038.91;1769132;80;26208;-63
2023/04/29 22:06:26;;;;;;;88.65;81.85;;;;;;;11.49;54.34;100041.78;1741325;82;25464;-62
2023/04/29 22:08:53;;;;;;;85.42;79.03;;;;;;;11.40;54.89;100031.50;1741199;82;27567;-63
2023/04/29 22:11:21;;;;;;;24.25;13.15;;;;;;;11.34;54.54;100029.52;1741342;82;25462;-63
2023/04/29 22:13:48;;;;;;;22.42;13.13;;;;;;;11.31;54.38;100034.22;1741223;82;25478;-64
2023/04/29 22:16:19;;;;;;;22.37;13.40;;;;;;;11.26;54.79;100036.30;1740900;82;25504;-62
2023/04/29 22:18:49;;;;;;;22.17;13.48;;;;;;;11.19;55.02;100034.86;1741486;82;25572;-63
2023/04/29 22:21:15;;;;;;;;;;;;;;;11.10;55.28;100042.20;1744000;82;28050;-64
2023/04/29 22:23:44;;;;;;;28.17;13.08;;;;;;;11.03;55.59;100036.44;1771992;81;25398;-63
2023/04/29 22:26:10;;;;;;;21.73;13.28;;;;;;;10.96;55.66;100049.09;1741548;82;32420;-62
2023/04/29 22:28:36;;;;;;;21.23;13.72;;;;;;;10.89;55.86;100044.72;1810798;79;26052;-62
2023/04/29 22:31:06;;;;;;;20.23;13.72;;;;;;;10.85;56.27;100041.06;1810808;79;25514;-62
2023/04/29 22:33:33;;;;;;;21.33;13.30;;;;;;;10.79;55.86;100043.10;1741310;82;27488;-62
2023/04/29 22:36:00;;;;;;;26.00;13.45;;;;;;;10.73;56.50;100036.27;1810768;79;25580;-62
2023/04/29 22:38:26;;;;;;;24.30;14.03;;;;;;;10.69;56.89;100039.91;1771978;80;25572;-63
2023/04/29 22:40:54;;;;;;;22.22;14.07;;;;;;;10.63;57.02;100037.36;1809612;79;25633;-64
2023/04/29 22:43:21;;;;;;;22.65;14.18;;;;;;;10.59;57.28;100036.94;1740461;82;25693;-63
2023/04/29 22:45:55;;;;;;;81.97;75.52;;;;;;;10.52;57.19;100036.08;1809760;79;27488;-63
2023/04/29 22:48:25;;;;;;;93.15;85.90;;;;;;;10.45;57.44;100030.31;1810652;79;25524;-63
2023/04/29 22:51:02;;;;;;;41.30;37.10;;;;;;;10.44;57.54;100028.73;1739578;82;25470;-63
2023/04/29 22:53:28;;;;;;;92.45;85.17;;;;;;;10.40;57.80;100027.22;1771868;81;25574;-63
2023/04/29 22:55:58;;;;;;;93.33;86.10;;;;;;;10.34;57.74;100029.03;1741312;82;25655;-63
2023/04/29 22:58:26;;;;;;;93.52;85.95;;;;;;;10.29;57.96;100030.71;1740702;82;27500;-63
2023/04/29 23:00:56;;;;;;;95.80;87.90;;;;;;;10.25;58.11;100033.03;1741284;82;25676;-63
2023/04/29 23:03:26;;;;;;;93.72;86.25;;;;;;;10.21;58.52;100037.45;1810849;79;25399;-63
2023/04/29 23:05:58;;;;;;;91.20;84.20;;;;;;;10.18;58.81;100032.66;1771481;81;26375;-63
2023/04/29 23:08:26;;;;;;;89.20;82.35;;;;;;;10.15;58.77;100042.20;1741102;82;25642;-63
2023/04/29 23:10:55;;;;;;;87.85;80.60;;;;;;;10.14;59.07;100033.05;1741467;82;32852;-63
2023/04/29 23:13:21;;;;;;;85.32;78.80;;;;;;;10.14;59.07;100035.19;1741024;82;25542;-62
2023/04/29 23:15:47;;;;;;;89.13;81.53;;;;;;;10.14;59.13;100032.48;1741406;81;25454;-62
2023/04/29 23:18:13;;;;;;;93.90;86.17;;;;;;;10.13;59.34;100034.97;1741237;82;25515;-62
2023/04/29 23:20:40;;;;;;;90.83;83.92;;;;;;;10.15;59.58;100033.28;1741302;82;25395;-62
2023/04/29 23:23:08;;;;;;;91.60;83.75;;;;;;;10.14;59.71;100035.75;1739681;82;27620;-62
2023/04/29 23:25:34;;;;;;;92.80;84.97;;;;;;;10.15;59.77;100037.33;1809416;79;25669;-62
2023/04/29 23:28:00;;;;;;;94.67;86.90;;;;;;;10.17;59.85;100028.38;1740155;82;25602;-63
2023/04/29 23:30:26;;;;;;;91.75;84.70;;;;;;;10.20;59.95;100044.77;1809783;79;25580;-63
2023/04/29 23:32:52;;;;;;;95.05;87.50;;;;;;;10.21;60.09;100038.23;1740250;82;25827;-63
2023/04/29 23:35:18;;;;;;;91.82;84.72;;;;;;;10.23;60.34;100039.27;1771000;81;27566;-63
2023/04/29 23:37:44;;;;;;;92.67;85.07;;;;;;;10.23;60.27;100041.45;1740037;82;29896;-63
2023/04/29 23:40:14;;;;;;;88.90;81.63;;;;;;;10.23;60.35;100038.74;1810399;78;25683;-63
2023/04/29 23:42:41;;;;;;;87.42;80.57;;;;;;;10.26;60.39;100040.01;1741326;82;25621;-64
2023/04/29 23:45:10;;;;;;;62.67;57.30;;;;;;;10.26;60.38;100034.60;1770920;81;25441;-61
2023/04/29 23:47:36;;;;;;;100.15;91.35;;;;;;;;;;1810586;79;29531;-62
2023/04/29 23:50:08;;;;;;;86.80;80.22;;;;;;;;;;1810784;79;35010;-62
2023/04/29 23:52:38;;;;;;;87.25;80.30;;;;;;;;;;1810836;79;25525;-62
2023/04/29 23:55:09;;;;;;;93.47;85.53;;;;;;;;;;1810746;79;25553;-62
2023/04/29 23:57:35;;;;;;;10.33;9.83;;;;;;;;;;1810308;79;25527;-63
